createdAt,value
2019-06-07T00:07:48.164Z,21.7
2019-06-07T00:17:48.343Z,21.6
2019-06-07T00:27:47.575Z,21.5
2019-06-07T00:37:46.808Z,21.5
2019-06-07T00:47:46.022Z,21.4
2019-06-07T00:57:45.256Z,21.4
2019-06-07T01:07:44.481Z,21.3
2019-06-07T01:18:25.798Z,21.3
2019-06-07T01:27:42.926Z,21.3
2019-06-07T01:37:42.164Z,21.2
2019-06-07T01:47:41.388Z,21.2
2019-06-07T01:57:47.833Z,21.2
2019-06-07T02:07:39.830Z,21.1
2019-06-07T02:17:39.059Z,21.1
2019-06-07T02:27:38.281Z,21
2019-06-07T02:37:37.759Z,20.9
2019-06-07T02:47:38.270Z,20.9
2019-06-07T02:57:40.902Z,20.9
2019-06-07T03:07:39.078Z,20.9
2019-06-07T03:17:36.410Z,20.8
2019-06-07T03:27:41.191Z,20.9
2019-06-07T03:37:37.487Z,20.9
2019-06-07T03:47:35.441Z,21.1
2019-06-07T03:58:17.649Z,21.3
2019-06-07T04:07:31.083Z,21.3
2019-06-07T04:17:31.094Z,21.2
2019-06-07T04:27:30.509Z,21.3
2019-06-07T04:37:28.507Z,21.6
2019-06-07T04:47:27.448Z,21.8
2019-06-07T04:57:26.671Z,22.1
2019-06-07T05:07:26.558Z,22.3
2019-06-07T05:17:25.116Z,22.4
2019-06-07T05:27:24.346Z,22.6
2019-06-07T05:37:23.566Z,22.7
2019-06-07T05:47:22.801Z,22.8
2019-06-07T05:57:22.055Z,23
2019-06-07T06:07:21.299Z,23.1
2019-06-07T06:17:20.475Z,23.3
2019-06-07T06:28:02.431Z,23.4
2019-06-07T06:37:18.921Z,23.4
2019-06-07T06:47:18.150Z,23.6
2019-06-07T06:57:19.892Z,23.7
2019-06-07T07:07:16.598Z,23.8
2019-06-07T07:17:15.824Z,24
2019-06-07T07:27:15.058Z,24.2
2019-06-07T07:37:14.334Z,24.4
2019-06-07T07:47:13.504Z,24.5
2019-06-07T07:57:12.729Z,24.6
2019-06-07T08:07:11.955Z,24.7
2019-06-07T08:17:11.180Z,24.8
2019-06-07T08:27:25.069Z,24.8
2019-06-07T08:37:09.632Z,24.8
2019-06-07T08:47:19.667Z,24.9
2019-06-07T08:57:20.379Z,24.9
2019-06-07T09:07:18.709Z,25
2019-06-07T09:17:11.685Z,25.1
2019-06-07T09:27:07.756Z,25.1
2019-06-07T09:37:41.431Z,25.1
2019-06-07T09:47:21.935Z,25.1
2019-06-07T09:57:07.110Z,25.1
2019-06-07T10:07:08.851Z,25.1
2019-06-07T10:17:03.147Z,25.1
2019-06-07T10:27:01.702Z,25.1
2019-06-07T10:37:03.270Z,25.1
2019-06-07T10:46:59.583Z,25.1
2019-06-07T10:56:58.862Z,25.2
2019-06-07T11:06:58.091Z,25.2
2019-06-07T11:16:57.263Z,25.2
2019-06-07T11:26:56.490Z,25.3
2019-06-07T11:36:55.721Z,25.3
2019-06-07T11:46:54.951Z,25.3
2019-06-07T11:56:54.180Z,25.3
2019-06-07T12:06:53.396Z,25.3
2019-06-07T12:16:52.629Z,25.3
2019-06-07T12:26:51.858Z,25.2
2019-06-07T12:36:51.076Z,25.3
2019-06-07T12:46:50.307Z,25.3
2019-06-07T12:56:52.275Z,25.3
2019-06-07T13:06:48.762Z,25.3
2019-06-07T13:16:48.014Z,25.3
2019-06-07T13:26:47.214Z,25.3
2019-06-07T13:36:46.442Z,25.3
2019-06-07T13:46:45.669Z,25.4
2019-06-07T13:57:01.165Z,25.4
2019-06-07T14:06:44.111Z,25.4
2019-06-07T14:16:43.338Z,25.4
2019-06-07T14:26:42.564Z,25.4
2019-06-07T14:36:41.797Z,25.4
2019-06-07T14:46:41.016Z,25.4
2019-06-07T14:56:40.244Z,25.4
2019-06-07T15:06:39.469Z,25.4
2019-06-07T15:16:38.708Z,25.3
2019-06-07T15:26:38.630Z,25.3
2019-06-07T15:36:38.500Z,25.3
2019-06-07T15:46:37.769Z,25.3
2019-06-07T15:56:36.879Z,25.2
2019-06-07T16:06:36.163Z,25.3
2019-06-07T16:16:35.017Z,25.2
2019-06-07T16:26:33.994Z,25.2
2019-06-07T16:36:32.522Z,25.1
2019-06-07T16:46:31.752Z,25.1
2019-06-07T16:56:30.986Z,25.1
2019-06-07T17:06:30.220Z,25.1
2019-06-07T17:16:29.486Z,25
2019-06-07T17:26:28.664Z,25
2019-06-07T17:36:27.892Z,24.9
2019-06-07T17:46:27.171Z,24.8
2019-06-07T17:56:26.353Z,24.9
2019-06-07T18:06:25.580Z,24.8
2019-06-07T18:16:24.825Z,24.6
2019-06-07T18:26:24.043Z,24.4
2019-06-07T18:36:23.274Z,24.3
2019-06-07T18:46:22.494Z,24.3
2019-06-07T18:56:21.731Z,24.3
2019-06-07T19:06:20.964Z,24.1
2019-06-07T19:16:20.185Z,24
2019-06-07T19:26:19.419Z,23.9
2019-06-07T19:36:18.651Z,23.9
2019-06-07T19:46:17.874Z,23.9
2019-06-07T19:56:17.095Z,23.8
2019-06-07T20:06:16.325Z,23.8
2019-06-07T20:16:15.561Z,23.8
2019-06-07T20:26:14.792Z,23.8
2019-06-07T20:36:14.013Z,23.6
2019-06-07T20:46:13.243Z,23.4
2019-06-07T20:56:12.470Z,23.4
2019-06-07T21:08:02.048Z,23.3
2019-06-07T21:18:03.279Z,23.3
2019-06-07T21:28:00.905Z,23.3
2019-06-07T21:37:59.352Z,23.3
2019-06-07T21:47:58.585Z,23.2
2019-06-07T21:57:57.810Z,23.2
2019-06-07T22:07:57.033Z,23.1
2019-06-07T22:17:56.334Z,23.1
2019-06-07T22:27:55.639Z,23.1
2019-06-07T22:37:54.938Z,23
2019-06-07T22:47:54.251Z,22.9
2019-06-07T22:57:53.561Z,22.9
2019-06-07T23:07:52.827Z,22.9
2019-06-07T23:17:52.057Z,22.8
2019-06-07T23:27:51.281Z,22.8
2019-06-07T23:37:50.510Z,22.8
2019-06-07T23:47:49.741Z,22.7
2019-06-07T23:57:48.968Z,22.6
